createdAt,value
2018-09-25T00:01:31.532Z,7.00
2018-09-25T00:04:05.143Z,7.00
2018-09-25T00:06:38.790Z,7.00
2018-09-25T00:09:14.451Z,7.10
2018-09-25T00:11:48.491Z,7.10
2018-09-25T00:14:22.133Z,7.20
2018-09-25T00:16:55.965Z,7.20
2018-09-25T00:19:29.743Z,7.20
2018-09-25T00:22:03.424Z,7.20
2018-09-25T00:24:37.072Z,7.20
2018-09-25T00:27:10.755Z,7.20
2018-09-25T00:29:44.412Z,7.30
2018-09-25T00:32:18.015Z,7.30
2018-09-25T00:34:51.647Z,7.30
2018-09-25T00:37:25.351Z,7.30
2018-09-25T00:39:59.075Z,7.30
2018-09-25T00:42:32.858Z,7.20
2018-09-25T00:45:06.480Z,7.20
2018-09-25T00:47:40.035Z,7.20
2018-09-25T00:50:13.748Z,7.20
2018-09-25T00:52:47.390Z,7.20
2018-09-25T00:55:21.048Z,7.20
2018-09-25T00:57:54.748Z,7.20
2018-09-25T01:00:28.460Z,7.20
2018-09-25T01:03:02.063Z,7.20
2018-09-25T01:05:35.712Z,7.20
2018-09-25T01:08:09.436Z,7.30
2018-09-25T01:10:43.018Z,7.30
2018-09-25T01:13:16.728Z,7.30
2018-09-25T01:15:50.296Z,7.30
2018-09-25T01:18:23.906Z,7.30
2018-09-25T01:20:57.505Z,7.30
2018-09-25T01:23:31.143Z,7.20
2018-09-25T01:26:04.769Z,7.20
2018-09-25T01:28:38.463Z,7.10
2018-09-25T01:31:12.068Z,7.10
2018-09-25T01:33:45.755Z,7.10
2018-09-25T01:36:19.644Z,7.10
2018-09-25T01:38:53.347Z,7.00
2018-09-25T01:41:26.943Z,6.90
2018-09-25T01:44:00.581Z,6.80
2018-09-25T01:46:34.226Z,6.90
2018-09-25T01:49:07.869Z,6.80
2018-09-25T01:51:41.584Z,6.80
2018-09-25T01:54:15.398Z,6.80
2018-09-25T01:56:49.118Z,6.80
2018-09-25T01:59:22.699Z,6.80
2018-09-25T02:01:56.387Z,6.70
2018-09-25T02:04:29.998Z,6.70
2018-09-25T02:07:03.766Z,6.70
2018-09-25T02:09:37.405Z,6.70
2018-09-25T02:12:11.030Z,6.60
2018-09-25T02:14:44.641Z,6.60
2018-09-25T02:17:18.501Z,6.60
2018-09-25T02:19:52.300Z,6.50
2018-09-25T02:22:26.046Z,6.50
2018-09-25T02:24:59.675Z,6.50
2018-09-25T02:27:33.395Z,6.50
2018-09-25T02:30:06.999Z,6.50
2018-09-25T02:32:40.807Z,6.40
2018-09-25T02:35:14.504Z,6.50
2018-09-25T02:37:48.003Z,6.40
2018-09-25T02:40:21.640Z,6.50
2018-09-25T02:42:55.307Z,6.50
2018-09-25T02:45:28.990Z,6.50
2018-09-25T02:48:02.619Z,6.50
2018-09-25T02:50:36.294Z,6.60
2018-09-25T02:53:09.892Z,6.60
2018-09-25T02:55:43.563Z,6.70
2018-09-25T02:58:17.423Z,6.60
2018-09-25T03:00:51.198Z,6.70
2018-09-25T03:03:24.907Z,6.70
2018-09-25T03:05:58.514Z,6.70
2018-09-25T03:08:32.193Z,6.70
2018-09-25T03:11:05.827Z,6.60
2018-09-25T03:13:39.492Z,6.60
2018-09-25T03:16:13.095Z,6.60
2018-09-25T03:18:46.701Z,6.50
2018-09-25T03:21:20.404Z,6.50
2018-09-25T03:23:53.985Z,6.50
2018-09-25T03:26:27.562Z,6.40
2018-09-25T03:29:01.309Z,6.30
2018-09-25T03:31:34.939Z,6.40
2018-09-25T03:34:08.583Z,6.30
2018-09-25T03:36:42.134Z,6.20
2018-09-25T03:39:15.966Z,6.30
2018-09-25T03:41:49.628Z,6.20
2018-09-25T03:44:23.224Z,6.20
2018-09-25T03:46:56.889Z,6.20
2018-09-25T03:49:30.556Z,6.20
2018-09-25T03:52:04.172Z,6.30
2018-09-25T03:54:37.828Z,6.30
2018-09-25T03:57:11.419Z,6.30
2018-09-25T03:59:45.139Z,6.30
2018-09-25T04:02:18.772Z,6.30
2018-09-25T04:04:52.411Z,6.30
2018-09-25T04:07:26.008Z,6.40
2018-09-25T04:09:59.631Z,6.40
2018-09-25T04:12:33.311Z,6.40
2018-09-25T04:15:07.009Z,6.30
2018-09-25T04:17:40.659Z,6.30
2018-09-25T04:20:14.307Z,6.30
2018-09-25T04:22:48.020Z,6.20
2018-09-25T04:25:21.704Z,6.30
2018-09-25T04:27:55.351Z,6.30
2018-09-25T04:30:29.039Z,6.20
2018-09-25T04:33:02.873Z,6.30
2018-09-25T04:35:36.548Z,6.20
2018-09-25T04:38:10.377Z,6.30
2018-09-25T04:40:43.955Z,6.30
2018-09-25T04:43:17.631Z,6.30
2018-09-25T04:45:51.334Z,6.40
2018-09-25T04:48:24.966Z,6.40
2018-09-25T04:50:58.600Z,6.40
2018-09-25T04:53:32.168Z,6.50
2018-09-25T04:56:05.790Z,6.50
2018-09-25T04:58:39.432Z,6.60
2018-09-25T05:01:13.098Z,6.60
2018-09-25T05:03:46.751Z,6.60
2018-09-25T05:06:20.406Z,6.70
2018-09-25T05:08:54.018Z,6.60
2018-09-25T05:11:27.627Z,6.70
2018-09-25T05:14:01.308Z,6.60
2018-09-25T05:16:34.961Z,6.70
2018-09-25T05:19:08.660Z,6.70
2018-09-25T05:21:42.324Z,6.80
2018-09-25T05:24:15.961Z,6.80
2018-09-25T05:26:49.599Z,6.70
2018-09-25T05:29:23.235Z,6.70
2018-09-25T05:31:56.902Z,6.70
2018-09-25T05:34:30.539Z,6.70
2018-09-25T05:37:04.159Z,6.70
2018-09-25T05:39:37.807Z,6.60
2018-09-25T05:42:11.440Z,6.60
2018-09-25T05:44:45.159Z,6.50
2018-09-25T05:47:18.824Z,6.50
2018-09-25T05:49:52.623Z,6.50
2018-09-25T05:52:26.251Z,6.40
2018-09-25T05:54:59.948Z,6.50
2018-09-25T05:57:33.647Z,6.40
2018-09-25T06:00:07.326Z,6.30
2018-09-25T06:02:40.997Z,5.90
2018-09-25T06:05:14.675Z,5.80
2018-09-25T06:07:48.269Z,5.80
2018-09-25T06:10:21.907Z,5.80
2018-09-25T06:12:55.544Z,5.90
2018-09-25T06:15:29.177Z,6.00
2018-09-25T06:18:02.751Z,6.10
2018-09-25T06:20:36.383Z,6.10
2018-09-25T06:23:09.952Z,6.20
2018-09-25T06:25:43.644Z,6.30
2018-09-25T06:28:17.360Z,6.40
2018-09-25T06:30:50.948Z,6.40
2018-09-25T06:33:24.599Z,6.50
2018-09-25T06:35:58.327Z,6.60
2018-09-25T06:38:32.152Z,6.60
2018-09-25T06:41:05.980Z,6.70
2018-09-25T06:43:39.756Z,6.70
2018-09-25T06:46:13.611Z,7.00
2018-09-25T06:48:47.264Z,7.50
2018-09-25T06:51:20.858Z,8.00
2018-09-25T06:53:54.516Z,8.60
2018-09-25T06:56:28.153Z,9.00
2018-09-25T06:59:01.751Z,9.10
2018-09-25T07:01:35.412Z,9.40
2018-09-25T07:04:09.076Z,9.00
2018-09-25T07:06:42.867Z,8.70
2018-09-25T07:09:16.728Z,8.60
2018-09-25T07:11:50.495Z,8.50
2018-09-25T07:14:24.108Z,8.20
2018-09-25T07:16:57.715Z,8.10
2018-09-25T07:19:31.379Z,8.00
2018-09-25T07:22:05.007Z,8.20
2018-09-25T07:24:38.643Z,8.30
2018-09-25T07:27:12.208Z,8.30
2018-09-25T07:29:45.818Z,8.30
2018-09-25T07:32:19.456Z,8.30
2018-09-25T07:34:53.074Z,8.20
2018-09-25T07:37:26.713Z,8.20
2018-09-25T07:40:00.369Z,8.30
2018-09-25T07:42:34.052Z,8.40
2018-09-25T07:45:07.686Z,8.40
2018-09-25T07:47:41.297Z,8.40
2018-09-25T07:50:14.998Z,8.50
2018-09-25T07:52:48.658Z,8.50
2018-09-25T07:55:22.403Z,8.60
2018-09-25T07:57:56.065Z,8.60
2018-09-25T08:00:29.562Z,8.70
2018-09-25T08:03:03.146Z,8.80
2018-09-25T08:05:36.760Z,8.90
2018-09-25T08:08:10.470Z,9.00
2018-09-25T08:10:43.994Z,9.10
2018-09-25T08:13:17.703Z,9.20
2018-09-25T08:15:51.093Z,9.40
2018-09-25T08:18:31.835Z,9.50
2018-09-25T08:21:05.825Z,9.60
2018-09-25T08:23:39.538Z,9.80
2018-09-25T08:26:13.137Z,9.90
2018-09-25T08:28:46.605Z,10.00
2018-09-25T08:31:20.071Z,10.20
2018-09-25T08:33:53.756Z,10.30
2018-09-25T08:36:27.269Z,10.40
2018-09-25T08:39:00.910Z,10.70
2018-09-25T08:41:34.392Z,11.10
2018-09-25T08:44:07.875Z,11.40
2018-09-25T08:46:41.472Z,11.60
2018-09-25T08:49:15.199Z,11.90
2018-09-25T08:51:49.295Z,12.20
2018-09-25T08:54:22.674Z,12.50
2018-09-25T08:56:56.359Z,12.50
2018-09-25T08:59:30.025Z,12.80
2018-09-25T09:02:03.346Z,12.80
2018-09-25T09:04:37.243Z,12.50
2018-09-25T09:07:11.161Z,12.30
2018-09-25T09:09:44.854Z,12.50
2018-09-25T09:12:18.452Z,12.80
2018-09-25T09:14:52.170Z,12.70
2018-09-25T09:17:25.848Z,12.50
2018-09-25T09:19:59.645Z,12.40
2018-09-25T09:22:33.322Z,12.20
2018-09-25T09:25:06.749Z,12.10
2018-09-25T09:27:40.271Z,12.00
2018-09-25T09:30:13.820Z,12.00
2018-09-25T09:32:47.455Z,12.00
2018-09-25T09:35:21.503Z,12.10
2018-09-25T09:37:55.070Z,12.10
2018-09-25T09:40:28.548Z,12.10
2018-09-25T09:43:02.120Z,12.20
2018-09-25T09:45:36.263Z,12.10
2018-09-25T09:48:10.203Z,12.20
2018-09-25T09:50:43.828Z,12.20
2018-09-25T09:53:17.574Z,12.20
2018-09-25T09:55:51.147Z,12.20
2018-09-25T09:58:24.795Z,12.20
2018-09-25T10:00:58.492Z,12.10
2018-09-25T10:03:32.164Z,12.10
2018-09-25T10:06:05.716Z,12.00
2018-09-25T10:08:39.226Z,12.00
2018-09-25T10:11:12.637Z,12.50
2018-09-25T10:13:46.279Z,13.20
2018-09-25T10:16:19.835Z,13.30
2018-09-25T10:18:53.333Z,13.20
2018-09-25T10:21:26.959Z,13.20
2018-09-25T10:24:00.315Z,13.10
2018-09-25T10:26:33.873Z,13.10
2018-09-25T10:29:07.387Z,13.10
2018-09-25T10:31:41.079Z,13.00
2018-09-25T10:34:14.976Z,13.00
2018-09-25T10:36:48.513Z,13.20
2018-09-25T10:39:22.083Z,13.80
2018-09-25T10:41:55.768Z,13.70
2018-09-25T10:44:29.338Z,13.60
2018-09-25T10:47:03.294Z,13.60
2018-09-25T10:49:37.094Z,13.50
2018-09-25T10:52:10.770Z,13.40
2018-09-25T10:54:44.447Z,13.60
2018-09-25T10:57:17.971Z,14.20
2018-09-25T10:59:51.906Z,14.90
2018-09-25T11:02:25.307Z,15.10
2018-09-25T11:04:59.435Z,14.80
2018-09-25T11:07:33.466Z,14.40
2018-09-25T11:10:07.022Z,14.30
2018-09-25T11:12:40.513Z,14.10
2018-09-25T11:15:14.050Z,14.10
2018-09-25T11:17:47.494Z,14.10
2018-09-25T11:20:21.569Z,14.50
2018-09-25T11:22:55.283Z,15.00
2018-09-25T11:25:28.931Z,15.40
2018-09-25T11:28:02.699Z,15.90
2018-09-25T11:30:36.239Z,15.90
2018-09-25T11:33:10.169Z,15.80
2018-09-25T11:35:44.011Z,16.10
2018-09-25T11:38:17.890Z,16.30
2018-09-25T11:40:51.399Z,16.60
2018-09-25T11:43:24.895Z,16.90
2018-09-25T11:45:58.519Z,16.60
2018-09-25T11:48:32.128Z,16.40
2018-09-25T11:51:05.478Z,16.40
2018-09-25T11:53:39.194Z,16.60
2018-09-25T11:56:12.615Z,16.70
2018-09-25T11:58:46.020Z,16.80
2018-09-25T12:01:19.673Z,17.00
2018-09-25T12:03:53.391Z,17.00
2018-09-25T12:06:27.075Z,16.90
2018-09-25T12:09:00.774Z,17.00
2018-09-25T12:11:34.407Z,17.20
2018-09-25T12:14:08.171Z,17.30
2018-09-25T12:16:41.812Z,17.00
2018-09-25T12:19:15.496Z,16.70
2018-09-25T12:21:49.411Z,16.40
2018-09-25T12:24:23.106Z,16.30
2018-09-25T12:26:56.796Z,16.00
2018-09-25T12:29:30.376Z,15.70
2018-09-25T12:32:03.803Z,15.50
2018-09-25T12:34:37.533Z,15.40
2018-09-25T12:37:11.275Z,15.50
2018-09-25T12:39:44.885Z,15.80
2018-09-25T12:42:19.184Z,16.30
2018-09-25T12:44:52.923Z,16.70
2018-09-25T12:47:26.358Z,17.00
2018-09-25T12:50:00.271Z,16.50
2018-09-25T12:52:34.048Z,16.30
2018-09-25T12:55:08.113Z,16.00
2018-09-25T12:57:41.732Z,15.80
2018-09-25T13:00:15.431Z,15.80
2018-09-25T13:02:49.055Z,15.80
2018-09-25T13:05:22.807Z,15.60
2018-09-25T13:07:56.730Z,15.40
2018-09-25T13:10:30.330Z,15.30
2018-09-25T13:13:03.890Z,15.20
2018-09-25T13:15:37.569Z,15.00
2018-09-25T13:18:11.472Z,15.00
2018-09-25T13:20:45.426Z,15.20
2018-09-25T13:23:19.141Z,15.40
2018-09-25T13:25:53.171Z,15.80
2018-09-25T13:28:27.156Z,16.10
2018-09-25T13:31:00.637Z,16.20
2018-09-25T13:33:34.655Z,16.30
2018-09-25T13:36:08.378Z,16.40
2018-09-25T13:38:42.067Z,16.20
2018-09-25T13:41:16.003Z,16.10
2018-09-25T13:43:49.560Z,16.00
2018-09-25T13:46:23.186Z,16.00
2018-09-25T13:48:57.135Z,15.90
2018-09-25T13:51:30.891Z,15.80
2018-09-25T13:54:04.691Z,15.60
2018-09-25T13:56:38.399Z,15.60
2018-09-25T13:59:12.353Z,15.50
2018-09-25T14:01:45.881Z,15.40
2018-09-25T14:04:19.552Z,15.40
2018-09-25T14:06:53.501Z,15.60
2018-09-25T14:09:27.759Z,15.70
2018-09-25T14:12:01.232Z,15.70
2018-09-25T14:14:34.863Z,15.90
2018-09-25T14:17:08.557Z,16.00
2018-09-25T14:19:42.069Z,16.10
2018-09-25T14:22:15.726Z,16.10
2018-09-25T14:24:50.140Z,16.10
2018-09-25T14:27:23.803Z,16.00
2018-09-25T14:29:57.393Z,15.90
2018-09-25T14:32:31.007Z,15.90
2018-09-25T14:35:04.835Z,16.10
2018-09-25T14:37:38.520Z,16.10
2018-09-25T14:40:12.244Z,16.10
2018-09-25T14:42:45.875Z,16.20
2018-09-25T14:45:19.577Z,16.10
2018-09-25T14:47:53.314Z,16.10
2018-09-25T14:50:26.987Z,16.00
2018-09-25T14:53:00.608Z,16.10
2018-09-25T14:55:34.371Z,16.00
2018-09-25T14:58:08.109Z,16.00
2018-09-25T15:00:41.930Z,16.00
2018-09-25T15:03:15.583Z,15.90
2018-09-25T15:05:49.204Z,15.80
2018-09-25T15:08:22.984Z,15.50
2018-09-25T15:10:56.609Z,15.40
2018-09-25T15:13:30.251Z,15.20
2018-09-25T15:16:03.900Z,15.00
2018-09-25T15:18:37.627Z,15.00
2018-09-25T15:21:11.572Z,15.00
2018-09-25T15:23:45.336Z,15.00
2018-09-25T15:26:19.078Z,14.90
2018-09-25T15:28:52.771Z,14.90
2018-09-25T15:31:26.439Z,14.80
2018-09-25T15:34:00.094Z,14.70
2018-09-25T15:36:33.722Z,14.60
2018-09-25T15:39:07.379Z,14.60
2018-09-25T15:41:41.025Z,14.50
2018-09-25T15:44:14.710Z,14.50
2018-09-25T15:46:48.360Z,14.50
2018-09-25T15:49:22.073Z,14.40
2018-09-25T15:51:55.817Z,14.30
2018-09-25T15:54:29.552Z,14.20
2018-09-25T15:57:03.394Z,14.20
2018-09-25T15:59:37.246Z,14.10
2018-09-25T16:02:10.885Z,14.00
2018-09-25T16:04:44.562Z,14.00
2018-09-25T16:07:18.350Z,14.00
2018-09-25T16:09:52.039Z,13.90
2018-09-25T16:12:25.847Z,13.90
2018-09-25T16:14:59.602Z,13.80
2018-09-25T16:17:33.341Z,13.70
2018-09-25T16:20:07.101Z,13.60
2018-09-25T16:22:40.791Z,13.50
2018-09-25T16:25:14.552Z,13.50
2018-09-25T16:27:48.301Z,13.40
2018-09-25T16:30:22.122Z,13.40
2018-09-25T16:32:55.808Z,13.30
2018-09-25T16:35:29.600Z,13.30
2018-09-25T16:38:03.246Z,13.30
2018-09-25T16:40:36.781Z,13.20
2018-09-25T16:43:10.387Z,13.20
2018-09-25T16:45:44.010Z,13.20
2018-09-25T16:48:17.647Z,13.10
2018-09-25T16:50:51.205Z,13.10
2018-09-25T16:53:24.876Z,13.10
2018-09-25T16:55:58.533Z,13.00
2018-09-25T16:58:32.284Z,13.00
2018-09-25T17:01:05.900Z,12.90
2018-09-25T17:03:39.539Z,12.90
2018-09-25T17:06:13.366Z,12.90
2018-09-25T17:08:47.237Z,12.90
2018-09-25T17:11:20.961Z,12.80
2018-09-25T17:13:54.830Z,12.70
2018-09-25T17:16:28.495Z,12.60
2018-09-25T17:19:02.164Z,12.50
2018-09-25T17:21:35.799Z,12.40
2018-09-25T17:24:09.465Z,12.40
2018-09-25T17:26:43.329Z,12.30
2018-09-25T17:29:17.021Z,12.20
2018-09-25T17:31:50.603Z,12.10
2018-09-25T17:34:24.271Z,11.90
2018-09-25T17:36:57.907Z,11.80
2018-09-25T17:39:31.523Z,11.70
2018-09-25T17:42:05.163Z,11.70
2018-09-25T17:44:38.813Z,11.60
2018-09-25T17:47:12.485Z,11.50
2018-09-25T17:49:46.306Z,11.50
2018-09-25T17:52:19.972Z,11.40
2018-09-25T17:54:53.595Z,11.20
2018-09-25T17:57:27.219Z,11.20
2018-09-25T18:00:00.872Z,11.10
2018-09-25T18:02:34.608Z,10.90
2018-09-25T18:05:08.292Z,10.80
2018-09-25T18:07:41.936Z,10.70
2018-09-25T18:10:15.608Z,10.70
2018-09-25T18:12:49.441Z,10.60
2018-09-25T18:15:23.117Z,10.50
2018-09-25T18:17:56.778Z,10.30
2018-09-25T18:20:30.919Z,10.20
2018-09-25T18:23:04.675Z,10.20
2018-09-25T18:25:38.494Z,10.10
2018-09-25T18:28:12.199Z,10.10
2018-09-25T18:30:45.994Z,10.00
2018-09-25T18:33:19.835Z,10.00
2018-09-25T18:35:53.472Z,9.90
2018-09-25T18:38:27.040Z,9.90
2018-09-25T18:41:00.666Z,9.80
2018-09-25T18:43:34.283Z,9.70
2018-09-25T18:46:07.746Z,9.70
2018-09-25T18:48:41.361Z,9.60
2018-09-25T18:51:14.948Z,9.60
2018-09-25T18:53:48.590Z,9.50
2018-09-25T18:56:22.383Z,9.40
2018-09-25T18:58:56.164Z,9.50
2018-09-25T19:01:29.858Z,9.40
2018-09-25T19:04:03.474Z,9.30
2018-09-25T19:06:37.247Z,9.20
2018-09-25T19:09:13.253Z,9.20
2018-09-25T19:11:47.099Z,9.10
2018-09-25T19:14:20.758Z,9.10
2018-09-25T19:16:54.404Z,9.10
2018-09-25T19:19:28.009Z,9.00
2018-09-25T19:22:01.794Z,8.90
2018-09-25T19:24:35.396Z,8.90
2018-09-25T19:27:09.018Z,8.90
2018-09-25T19:29:42.678Z,8.90
2018-09-25T19:32:16.245Z,8.80
2018-09-25T19:34:49.859Z,8.80
2018-09-25T19:37:23.449Z,8.80
2018-09-25T19:39:57.195Z,8.70
2018-09-25T19:42:31.008Z,8.70
2018-09-25T19:45:04.771Z,8.70
2018-09-25T19:47:38.510Z,8.60
2018-09-25T19:50:12.249Z,8.60
2018-09-25T19:52:46.070Z,8.50
2018-09-25T19:55:19.711Z,8.50
2018-09-25T19:57:53.342Z,8.50
2018-09-25T20:00:26.985Z,8.50
2018-09-25T20:03:00.678Z,8.40
2018-09-25T20:05:34.244Z,8.40
2018-09-25T20:08:07.861Z,8.40
2018-09-25T20:10:41.543Z,8.30
2018-09-25T20:13:15.370Z,8.30
2018-09-25T20:15:48.924Z,8.30
2018-09-25T20:18:22.615Z,8.30
2018-09-25T20:20:56.409Z,8.30
2018-09-25T20:23:30.047Z,8.20
2018-09-25T20:26:03.635Z,8.20
2018-09-25T20:28:37.328Z,8.20
2018-09-25T20:31:11.162Z,8.10
2018-09-25T20:33:44.861Z,8.10
2018-09-25T20:36:18.521Z,8.10
2018-09-25T20:38:52.182Z,8.00
2018-09-25T20:41:25.779Z,8.00
2018-09-25T20:43:59.622Z,8.00
2018-09-25T20:46:33.387Z,8.00
2018-09-25T20:49:07.074Z,7.90
2018-09-25T20:51:40.743Z,8.00
2018-09-25T20:54:14.656Z,7.80
2018-09-25T20:56:48.412Z,7.70
2018-09-25T20:59:22.103Z,7.70
2018-09-25T21:01:55.714Z,7.70
2018-09-25T21:04:29.367Z,7.60
2018-09-25T21:07:02.978Z,7.50
2018-09-25T21:09:36.645Z,7.60
2018-09-25T21:12:10.356Z,7.50
2018-09-25T21:14:43.979Z,7.60
2018-09-25T21:17:17.791Z,7.60
2018-09-25T21:19:51.349Z,7.60
2018-09-25T21:22:25.032Z,7.50
2018-09-25T21:24:58.708Z,7.50
2018-09-25T21:27:32.441Z,7.50
2018-09-25T21:30:06.065Z,7.50
2018-09-25T21:32:39.695Z,7.40
2018-09-25T21:35:13.296Z,7.30
2018-09-25T21:37:46.955Z,7.40
2018-09-25T21:40:20.615Z,7.40
2018-09-25T21:42:54.183Z,7.50
2018-09-25T21:45:27.826Z,7.50
2018-09-25T21:48:01.443Z,7.50
2018-09-25T21:50:35.076Z,7.50
2018-09-25T21:53:08.675Z,7.60
2018-09-25T21:55:42.365Z,7.60
2018-09-25T21:58:15.978Z,7.60
2018-09-25T22:00:49.781Z,7.60
2018-09-25T22:03:23.635Z,7.60
2018-09-25T22:05:57.279Z,7.60
2018-09-25T22:08:30.909Z,7.60
2018-09-25T22:11:04.607Z,7.60
2018-09-25T22:13:38.295Z,7.60
2018-09-25T22:16:11.986Z,7.60
2018-09-25T22:18:45.599Z,7.50
2018-09-25T22:21:19.219Z,7.50
2018-09-25T22:23:52.906Z,7.50
2018-09-25T22:26:26.499Z,7.50
2018-09-25T22:29:00.209Z,7.40
2018-09-25T22:31:34.088Z,7.40
2018-09-25T22:34:07.835Z,7.40
2018-09-25T22:36:41.512Z,7.40
2018-09-25T22:39:15.564Z,7.30
2018-09-25T22:41:49.037Z,7.30
2018-09-25T22:44:22.734Z,7.30
2018-09-25T22:46:56.357Z,7.30
2018-09-25T22:49:30.060Z,7.30
2018-09-25T22:52:10.395Z,7.30
2018-09-25T22:54:44.041Z,7.30
2018-09-25T22:57:17.644Z,7.30
2018-09-25T22:59:51.288Z,7.40
2018-09-25T23:02:24.987Z,7.30
2018-09-25T23:04:58.618Z,7.30
2018-09-25T23:07:32.291Z,7.30
2018-09-25T23:10:05.977Z,7.30
2018-09-25T23:12:39.695Z,7.30
2018-09-25T23:15:13.357Z,7.30
2018-09-25T23:17:47.111Z,7.30
2018-09-25T23:20:20.655Z,7.30
2018-09-25T23:22:54.237Z,7.30
2018-09-25T23:25:27.882Z,7.40
2018-09-25T23:28:01.580Z,7.40
2018-09-25T23:30:35.232Z,7.30
2018-09-25T23:33:08.910Z,7.30
2018-09-25T23:35:42.743Z,7.30
2018-09-25T23:38:16.295Z,7.30
2018-09-25T23:40:48.866Z,7.30
2018-09-25T23:43:21.603Z,7.30
2018-09-25T23:47:59.278Z,7.30
2018-09-25T23:50:32.242Z,7.20
2018-09-25T23:53:04.799Z,7.20
2018-09-25T23:55:40.262Z,7.20
2018-09-25T23:58:13.862Z,7.20
